Time;durP1;ratioP1;P1;durP2;ratioP2;P2;SDS_P1;SDS_P2;PMS_P1;PMS_P2;Temp;Humidity;BMP_temperature;BMP_pressure;BME280_temperature;BME280_humidity;BME280_pressure;Samples;Min_cycle;Max_cycle;Signal;HPM_P1;HPM_P2
2022/06/25 00:01:15;;;;;;;6.40;5.03;;;;;;;17.20;100.00;100838.78;5039192;28;20029;-75
2022/06/25 00:03:41;;;;;;;7.88;5.53;;;;;;;17.12;100.00;100836.25;5036945;28;20586;-74
2022/06/25 00:06:07;;;;;;;7.63;5.75;;;;;;;16.98;100.00;100827.28;5037400;28;20037;-74
2022/06/25 00:08:34;;;;;;;10.32;5.97;;;;;;;16.95;100.00;100843.69;5040017;28;20120;-74
2022/06/25 00:11:00;;;;;;;8.27;5.22;;;;;;;16.88;100.00;100826.00;5035351;28;20030;-74
2022/06/25 00:13:25;;;;;;;8.45;5.72;;;;;;;16.88;100.00;100834.00;5036618;28;20090;-74
2022/06/25 00:15:51;;;;;;;7.13;6.03;;;;;;;16.88;100.00;100847.31;5041645;28;20103;-74
2022/06/25 00:18:17;;;;;;;8.82;5.40;;;;;;;16.83;100.00;100851.38;5037529;28;20363;-74
2022/06/25 00:20:44;;;;;;;7.97;5.32;;;;;;;16.69;100.00;100838.09;5036391;28;20028;-74
2022/06/25 00:23:10;;;;;;;6.00;4.40;;;;;;;16.74;100.00;100852.47;5023806;28;20033;-74
2022/06/25 00:25:35;;;;;;;11.20;6.50;;;;;;;16.70;100.00;100850.38;5039159;28;20021;-74
2022/06/25 00:28:00;;;;;;;9.95;6.80;;;;;;;16.70;100.00;100856.56;5035184;28;20552;-74
2022/06/25 00:30:26;;;;;;;6.18;5.00;;;;;;;16.69;100.00;100868.22;5041504;28;20125;-74
2022/06/25 00:32:52;;;;;;;7.07;5.13;;;;;;;16.65;100.00;100861.63;5038387;28;20405;-74
2022/06/25 00:35:17;;;;;;;7.95;5.93;;;;;;;16.58;100.00;100858.06;5040182;28;20029;-74
2022/06/25 00:37:43;;;;;;;6.43;5.10;;;;;;;16.52;100.00;100845.50;5032650;28;20033;-74
2022/06/25 00:40:10;;;;;;;7.55;5.32;;;;;;;16.58;100.00;100872.19;5043351;28;20087;-74
2022/06/25 00:42:36;;;;;;;5.97;5.25;;;;;;;16.54;100.00;100857.59;5039071;28;20399;-74
2022/06/25 00:45:01;;;;;;;7.63;6.72;;;;;;;16.39;100.00;100854.97;5040455;28;20033;-74
2022/06/25 00:47:26;;;;;;;7.20;5.75;;;;;;;16.55;100.00;100863.75;5035527;28;20397;-74
2022/06/25 00:49:53;;;;;;;8.40;5.18;;;;;;;16.47;100.00;100846.06;5032267;28;20087;-74
2022/06/25 00:52:21;;;;;;;14.23;6.65;;;;;;;16.56;100.00;100865.41;5020747;28;21009;-74
2022/06/25 00:54:54;;;;;;;7.40;5.80;;;;;;;16.51;100.00;100865.16;5035694;28;20180;-74
2022/06/25 00:57:24;;;;;;;10.30;6.20;;;;;;;16.47;100.00;100855.91;5040838;28;20026;-74
2022/06/25 00:59:51;;;;;;;9.65;6.05;;;;;;;16.59;100.00;100867.69;5041360;28;20485;-74
2022/06/25 01:02:18;;;;;;;7.88;5.80;;;;;;;16.58;100.00;100876.72;5034958;28;20033;-74
2022/06/25 01:04:43;;;;;;;9.73;6.55;;;;;;;16.58;100.00;100871.38;5041870;28;20032;-74
2022/06/25 01:07:09;;;;;;;9.00;5.90;;;;;;;16.54;100.00;100859.44;5042663;28;20031;-74
2022/06/25 01:09:36;;;;;;;7.32;6.63;;;;;;;16.56;100.00;100876.06;5029488;28;20327;-74
2022/06/25 01:12:02;;;;;;;9.52;5.85;;;;;;;16.51;100.00;100873.16;5042088;28;20029;-74
2022/06/25 01:14:27;;;;;;;6.32;5.03;;;;;;;16.53;100.00;100877.28;5033696;28;20083;-74
2022/06/25 01:16:53;;;;;;;8.07;6.00;;;;;;;16.47;100.00;100875.38;5043555;28;20083;-74
2022/06/25 01:19:18;;;;;;;8.32;6.03;;;;;;;16.49;100.00;100883.19;5028177;28;20029;-74
2022/06/25 01:21:44;;;;;;;10.23;6.45;;;;;;;16.47;100.00;100883.34;5037729;28;20819;-74
2022/06/25 01:24:11;;;;;;;8.05;5.68;;;;;;;16.45;100.00;100891.53;5038768;28;20025;-74
2022/06/25 01:26:39;;;;;;;9.32;6.05;;;;;;;16.44;100.00;100884.56;5040454;28;20102;-74
2022/06/25 01:29:05;;;;;;;8.07;6.43;;;;;;;16.38;100.00;100887.97;5035755;28;20442;-74
2022/06/25 01:31:31;;;;;;;8.98;6.25;;;;;;;16.33;100.00;100877.06;5042504;28;20021;-74
2022/06/25 01:33:57;;;;;;;9.65;6.15;;;;;;;16.39;100.00;100894.13;5022403;28;20428;-74
2022/06/25 01:36:22;;;;;;;7.78;5.55;;;;;;;16.36;100.00;100897.97;5031112;28;20017;-74
2022/06/25 01:38:47;;;;;;;6.55;4.82;;;;;;;16.37;100.00;100902.28;5031818;28;20040;-74
2022/06/25 01:41:13;;;;;;;9.70;6.35;;;;;;;16.35;100.00;100909.66;5030214;28;20029;-74
2022/06/25 01:43:39;;;;;;;7.97;5.93;;;;;;;16.35;100.00;100907.00;5037984;28;21022;-74
2022/06/25 01:46:06;;;;;;;10.23;6.10;;;;;;;16.30;100.00;100909.38;5036191;28;20128;-74
2022/06/25 01:48:32;;;;;;;8.20;6.18;;;;;;;16.26;100.00;100913.41;5038370;28;20229;-74
2022/06/25 01:50:57;;;;;;;7.18;6.07;;;;;;;16.18;100.00;100895.72;5042774;28;20512;-75
2022/06/25 01:53:23;;;;;;;9.50;6.55;;;;;;;16.19;100.00;100912.53;5040719;28;20537;-75
2022/06/25 01:55:48;;;;;;;7.78;5.57;;;;;;;16.17;100.00;100914.53;5034077;28;20416;-74
2022/06/25 01:58:14;;;;;;;7.22;5.32;;;;;;;16.15;100.00;100909.38;5039250;28;20029;-74
2022/06/25 02:00:39;;;;;;;7.85;4.88;;;;;;;16.02;100.00;100891.41;5043210;28;20392;-75
2022/06/25 02:03:05;;;;;;;7.28;5.15;;;;;;;16.14;100.00;100904.28;5022117;28;20084;-75
2022/06/25 02:08:17;;;;;;;8.40;5.25;;;;;;;16.13;100.00;100910.59;5035409;28;20039;-74
2022/06/25 02:10:43;;;;;;;7.43;4.57;;;;;;;15.90;100.00;100874.25;5041498;28;20432;-74
2022/06/25 02:13:08;;;;;;;9.57;6.38;;;;;;;16.07;100.00;100906.00;5032351;28;20053;-74
2022/06/25 02:15:34;;;;;;;6.97;5.43;;;;;;;16.09;100.00;100919.94;5037499;28;20030;-74
2022/06/25 02:18:00;;;;;;;9.55;5.70;;;;;;;16.09;100.00;100906.63;5038589;28;20033;-74
2022/06/25 02:20:26;;;;;;;7.35;6.05;;;;;;;16.07;100.00;100919.31;5043876;28;20033;-74
2022/06/25 02:22:53;;;;;;;10.07;7.03;;;;;;;16.00;100.00;100908.56;5038528;28;20029;-74
2022/06/25 02:25:18;;;;;;;13.43;6.93;;;;;;;15.97;100.00;100924.94;5039940;28;20507;-74
2022/06/25 02:27:45;;;;;;;10.50;7.20;;;;;;;15.88;100.00;100916.19;5040715;28;20044;-74
2022/06/25 02:30:10;;;;;;;8.30;5.93;;;;;;;15.90;100.00;100927.50;5037222;28;20116;-74
2022/06/25 02:32:36;;;;;;;10.85;7.35;;;;;;;15.89;100.00;100927.66;5018201;28;20109;-74
2022/06/25 02:35:02;;;;;;;11.05;6.45;;;;;;;15.89;100.00;100928.50;5027692;28;20029;-74
2022/06/25 02:37:27;;;;;;;8.23;6.85;;;;;;;15.86;100.00;100930.72;5038387;28;20086;-74
2022/06/25 02:39:53;;;;;;;9.25;5.93;;;;;;;15.73;100.00;100918.03;5012696;28;20033;-74
2022/06/25 02:42:18;;;;;;;9.63;7.35;;;;;;;15.83;100.00;100939.88;5034023;28;20373;-75
2022/06/25 02:44:43;;;;;;;11.13;7.55;;;;;;;15.83;100.00;100938.03;5039892;28;20119;-75
2022/06/25 02:47:09;;;;;;;10.07;6.18;;;;;;;15.77;100.00;100937.94;5031362;28;20041;-75
2022/06/25 02:49:34;;;;;;;8.07;7.07;;;;;;;15.80;100.00;100946.38;5029989;28;20357;-75
2022/06/25 02:52:00;;;;;;;11.35;8.10;;;;;;;15.75;100.00;100935.47;5032243;28;20029;-75
2022/06/25 02:54:25;;;;;;;11.75;6.68;;;;;;;15.78;100.00;100952.91;5021401;28;20033;-75
2022/06/25 02:59:38;;;;;;;11.35;7.63;;;;;;;15.72;100.00;100950.94;5037743;28;20051;-74
2022/06/25 03:02:04;;;;;;;16.80;5.80;;;;;;;15.64;100.00;100952.66;5029252;28;20120;-75
2022/06/25 03:04:29;;;;;;;6.80;5.60;;;;;;;15.68;100.00;100962.94;5037236;28;20036;-74
2022/06/25 03:06:54;;;;;;;14.07;7.28;;;;;;;15.63;100.00;100955.50;5032832;28;20080;-74
2022/06/25 03:09:20;;;;;;;9.65;6.38;;;;;;;15.54;100.00;100946.75;5018236;28;20064;-74
2022/06/25 03:11:46;;;;;;;7.45;5.90;;;;;;;15.63;100.00;100961.66;5040381;28;20034;-75
2022/06/25 03:14:11;;;;;;;9.73;7.03;;;;;;;15.62;100.00;100953.84;5042775;28;20047;-75
2022/06/25 03:16:37;;;;;;;10.75;6.82;;;;;;;15.60;100.00;100961.19;5043122;28;20021;-75
2022/06/25 03:19:03;;;;;;;9.55;6.70;;;;;;;15.51;100.00;100941.81;5042401;28;20416;-75
2022/06/25 03:21:29;;;;;;;10.15;6.55;;;;;;;15.60;100.00;100962.00;5038830;28;20030;-75
2022/06/25 03:23:55;;;;;;;8.90;6.22;;;;;;;15.50;100.00;100949.97;5035815;28;20124;-75
2022/06/25 03:26:20;;;;;;;10.52;6.55;;;;;;;15.55;100.00;100964.38;5020695;28;20028;-74
2022/06/25 03:28:46;;;;;;;7.30;6.03;;;;;;;15.59;100.00;100976.31;5041819;28;20411;-74
2022/06/25 03:31:11;;;;;;;9.63;5.82;;;;;;;15.45;100.00;100955.81;5041419;28;20052;-75
2022/06/25 03:33:36;;;;;;;8.52;5.93;;;;;;;15.55;100.00;100967.03;5019472;28;20022;-75
2022/06/25 03:36:02;;;;;;;9.80;6.00;;;;;;;15.46;100.00;100954.84;5034415;28;20444;-75
2022/06/25 03:38:27;;;;;;;8.05;6.03;;;;;;;15.57;100.00;100977.50;5016813;28;20472;-75
2022/06/25 03:41:32;;;;;;;7.70;6.35;;;;;;;15.55;100.00;100974.22;5043046;28;20041;-75
2022/06/25 03:43:38;;;;;;;9.00;5.97;;;;;;;15.57;100.00;100975.69;5028033;28;20160;-75
2022/06/25 03:46:04;;;;;;;6.47;5.85;;;;;;;15.56;100.00;100975.84;5035330;28;20053;-75
2022/06/25 03:48:29;;;;;;;12.50;6.07;;;;;;;15.46;100.00;100954.84;5018539;28;20040;-75
2022/06/25 03:50:55;;;;;;;9.30;5.93;;;;;;;15.57;100.00;100972.16;5040101;28;20578;-75
2022/06/25 03:53:20;;;;;;;8.65;6.30;;;;;;;15.60;100.00;100972.66;5022078;28;20456;-75
2022/06/25 03:55:45;;;;;;;7.40;5.35;;;;;;;15.63;100.00;100972.31;5042161;28;20108;-75
2022/06/25 03:58:11;;;;;;;8.18;6.75;;;;;;;15.68;100.00;100981.56;5020314;28;20448;-75
2022/06/25 04:00:36;;;;;;;5.80;5.20;;;;;;;15.69;100.00;100975.25;5035597;28;20044;-74
2022/06/25 04:03:01;;;;;;;8.50;5.68;;;;;;;15.73;100.00;100987.22;5036939;28;20426;-74
2022/06/25 04:05:27;;;;;;;10.80;5.85;;;;;;;15.74;100.00;100988.84;5031384;28;20124;-74
2022/06/25 04:07:52;;;;;;;10.35;5.63;;;;;;;15.72;100.00;100981.06;5035536;28;20021;-74
2022/06/25 04:10:18;;;;;;;6.40;5.50;;;;;;;15.71;100.00;100973.22;5021353;28;20044;-74
2022/06/25 04:12:43;;;;;;;5.53;4.95;;;;;;;15.79;100.00;100981.19;5019076;28;20029;-75
2022/06/25 04:15:09;;;;;;;7.30;5.45;;;;;;;15.84;100.00;100986.78;5045214;28;20040;-75
2022/06/25 04:17:35;;;;;;;9.52;6.68;;;;;;;15.87;100.00;100994.38;5037191;28;20030;-75
2022/06/25 04:20:01;;;;;;;9.07;5.20;;;;;;;15.84;100.00;100981.44;5042029;28;20033;-75
2022/06/25 04:22:27;;;;;;;9.23;5.30;;;;;;;15.88;100.00;100974.75;5040164;28;20039;-74
2022/06/25 04:24:52;;;;;;;8.30;5.60;;;;;;;15.94;100.00;100984.69;5033601;28;20033;-74
2022/06/25 04:30:02;;;;;;;6.85;5.53;;;;;;;15.84;100.00;100981.44;5043149;28;20083;-74
2022/06/25 04:32:28;;;;;;;7.97;5.00;;;;;;;16.00;100.00;100993.75;5023320;28;20041;-75
2022/06/25 04:34:53;;;;;;;7.45;5.18;;;;;;;16.01;100.00;100996.25;5034734;28;20057;-75
2022/06/25 04:37:19;;;;;;;8.32;5.85;;;;;;;16.02;100.00;100999.72;5040436;28;20031;-75
2022/06/25 04:39:44;;;;;;;6.90;4.53;;;;;;;16.03;100.00;100993.41;5036853;28;20224;-74
2022/06/25 04:42:10;;;;;;;7.18;4.95;;;;;;;16.03;100.00;100996.06;5040657;28;20059;-75
2022/06/25 04:44:35;;;;;;;6.30;5.03;;;;;;;16.05;100.00;101002.03;5038728;28;20033;-75
2022/06/25 04:47:01;;;;;;;7.82;5.65;;;;;;;16.10;100.00;101009.47;5042407;28;20045;-73
2022/06/25 04:49:26;;;;;;;9.00;6.00;;;;;;;16.16;100.00;101019.41;5040408;28;20036;-75
2022/06/25 04:51:51;;;;;;;6.25;5.30;;;;;;;16.24;100.00;101019.28;5037292;28;20075;-74
2022/06/25 04:54:17;;;;;;;6.82;5.00;;;;;;;16.35;100.00;101023.34;5046803;28;20033;-75
2022/06/25 04:56:42;;;;;;;10.82;5.95;;;;;;;16.44;100.00;101028.41;5042601;28;20102;-73
2022/06/25 04:59:07;;;;;;;12.07;6.00;;;;;;;16.50;100.00;101020.69;5043009;28;20537;-74
2022/06/25 05:01:33;;;;;;;6.65;5.20;;;;;;;16.65;100.00;101024.16;5020115;28;20087;-74
2022/06/25 05:03:59;;;;;;;9.52;5.47;;;;;;;16.66;100.00;101017.84;5039367;28;20041;-74
2022/06/25 05:06:24;;;;;;;7.97;5.40;;;;;;;16.78;100.00;101034.16;5020090;28;20531;-74
2022/06/25 05:08:49;;;;;;;8.00;4.55;;;;;;;16.97;100.00;101032.78;5035181;28;20036;-74
2022/06/25 05:11:15;;;;;;;8.32;5.03;;;;;;;16.96;100.00;101021.31;5047837;28;20099;-74
2022/06/25 05:13:40;;;;;;;6.25;5.45;;;;;;;16.99;100.00;101009.44;5037045;28;20032;-74
2022/06/25 05:16:06;;;;;;;8.68;5.95;;;;;;;17.13;100.00;101019.22;5022527;28;20033;-74
2022/06/25 05:18:31;;;;;;;7.10;5.20;;;;;;;17.06;100.00;100997.00;5023479;28;20400;-76
2022/06/25 05:20:57;;;;;;;9.10;5.32;;;;;;;17.24;100.00;101012.56;5031749;28;20137;-74
2022/06/25 05:23:22;;;;;;;9.70;5.05;;;;;;;17.34;100.00;101020.25;5031370;28;20409;-74
2022/06/25 05:25:47;;;;;;;6.82;5.50;;;;;;;17.46;100.00;101022.22;5012974;28;20139;-74
2022/06/25 05:28:15;;;;;;;9.07;5.47;;;;;;;17.64;100.00;101024.44;5033425;28;20084;-74
2022/06/25 05:30:40;;;;;;;6.53;4.80;;;;;;;17.72;100.00;101025.31;5031054;28;20493;-74
2022/06/25 05:33:06;;;;;;;6.70;4.60;;;;;;;17.76;100.00;101032.75;5032574;28;20037;-74
2022/06/25 05:35:31;;;;;;;5.55;4.72;;;;;;;17.83;100.00;101032.81;5032006;28;20030;-76
2022/06/25 05:37:57;;;;;;;7.40;4.72;;;;;;;18.01;100.00;101032.38;5039257;28;20086;-74
2022/06/25 05:40:22;;;;;;;5.60;4.45;;;;;;;17.98;100.00;101006.84;5035004;28;20520;-74
2022/06/25 05:42:48;;;;;;;7.05;4.18;;;;;;;18.24;100.00;101037.44;5031389;28;20094;-74
2022/06/25 05:45:13;;;;;;;4.55;3.90;;;;;;;18.30;100.00;101033.97;5037792;28;20155;-74
2022/06/25 05:47:39;;;;;;;5.70;3.88;;;;;;;18.66;100.00;101038.28;5036115;28;20034;-74
2022/06/25 05:50:06;;;;;;;4.65;3.20;;;;;;;19.07;100.00;101043.59;5029152;28;20025;-74
2022/06/25 05:52:31;;;;;;;6.00;3.95;;;;;;;19.12;100.00;101043.03;5032427;28;20025;-74
2022/06/25 05:54:57;;;;;;;4.18;3.00;;;;;;;18.91;100.00;101046.66;5032867;28;20036;-74
2022/06/25 05:57:22;;;;;;;6.20;3.95;;;;;;;18.93;100.00;101043.78;5032848;28;20469;-74
2022/06/25 05:59:47;;;;;;;6.50;3.72;;;;;;;18.85;100.00;101058.13;5029652;28;20465;-74
2022/06/25 06:02:13;;;;;;;5.05;3.08;;;;;;;18.83;100.00;101055.66;5031030;28;20109;-74
2022/06/25 06:04:38;;;;;;;5.03;3.78;;;;;;;18.78;100.00;101058.13;5028621;28;20079;-74
2022/06/25 06:07:04;;;;;;;5.93;4.15;;;;;;;18.84;100.00;101057.31;5028921;28;20468;-74
2022/06/25 06:09:32;;;;;;;4.25;3.67;;;;;;;18.89;100.00;101052.19;5033480;28;20431;-74
2022/06/25 06:11:58;;;;;;;4.93;3.88;;;;;;;19.04;100.00;101059.25;5033964;28;20121;-74
2022/06/25 06:14:23;;;;;;;3.80;2.97;;;;;;;19.09;100.00;101054.09;5027659;28;20033;-74
2022/06/25 06:16:49;;;;;;;4.03;3.08;;;;;;;19.48;100.00;101068.63;5026068;28;20036;-74
2022/06/25 06:19:14;;;;;;;6.15;3.15;;;;;;;19.50;100.00;101066.56;5029467;28;20124;-74
2022/06/25 06:21:40;;;;;;;4.97;3.38;;;;;;;19.73;100.00;101077.75;5019796;28;20602;-74
2022/06/25 06:24:06;;;;;;;4.57;3.03;;;;;;;19.60;100.00;101060.78;5034210;28;20040;-74
2022/06/25 06:26:32;;;;;;;5.20;3.60;;;;;;;19.67;100.00;101078.53;5001552;28;20053;-74
2022/06/25 06:28:58;;;;;;;4.80;3.65;;;;;;;19.85;100.00;101079.81;5030630;28;20096;-74
2022/06/25 06:31:23;;;;;;;5.97;3.50;;;;;;;20.11;100.00;101074.44;5030234;28;20393;-74
2022/06/25 06:33:48;;;;;;;6.18;3.97;;;;;;;20.23;97.53;101076.47;5031856;28;20498;-73
2022/06/25 06:36:14;;;;;;;4.43;2.83;;;;;;;20.80;97.25;101087.53;5030321;28;20083;-75
2022/06/25 06:38:39;;;;;;;3.90;3.10;;;;;;;20.77;95.53;101083.41;5031670;28;20553;-74
2022/06/25 06:41:05;;;;;;;3.65;3.15;;;;;;;21.13;94.43;101093.56;5034870;28;20029;-74
2022/06/25 06:43:30;;;;;;;6.63;2.97;;;;;;;21.49;91.59;101097.56;5034069;28;20037;-74
2022/06/25 06:45:55;;;;;;;4.05;3.03;;;;;;;21.65;89.82;101095.38;5027635;28;20056;-74
2022/06/25 06:48:21;;;;;;;5.50;3.15;;;;;;;21.83;91.01;101097.31;5031385;28;20028;-74
2022/06/25 06:50:46;;;;;;;4.10;2.80;;;;;;;21.87;88.16;101093.16;5027171;28;20029;-74
2022/06/25 06:53:12;;;;;;;4.72;2.72;;;;;;;22.14;88.11;101105.31;5029595;28;20029;-74
2022/06/25 06:55:37;;;;;;;4.22;3.08;;;;;;;22.48;86.27;101103.16;5033404;28;20020;-73
2022/06/25 06:58:03;;;;;;;3.65;2.65;;;;;;;22.77;86.38;101103.47;5030854;28;20473;-73
2022/06/25 07:00:28;;;;;;;3.35;2.65;;;;;;;22.87;83.63;101109.16;5032663;28;20071;-74
2022/06/25 07:02:55;;;;;;;5.22;2.67;;;;;;;22.66;84.48;101117.66;5030148;28;20399;-74
2022/06/25 07:05:20;;;;;;;5.28;2.33;;;;;;;22.62;85.19;101106.53;5029375;28;20428;-74
2022/06/25 07:07:47;;;;;;;3.53;2.55;;;;;;;22.38;83.75;101116.28;5030391;28;20022;-74
2022/06/25 07:10:13;;;;;;;5.18;2.45;;;;;;;22.56;84.34;101112.81;5032838;28;20029;-73
2022/06/25 07:12:39;;;;;;;3.53;2.25;;;;;;;22.87;84.40;101109.16;5036780;28;20083;-74
2022/06/25 07:15:05;;;;;;;3.45;2.83;;;;;;;22.88;81.26;101112.66;5014107;28;20076;-75
2022/06/25 07:17:30;;;;;;;4.20;2.55;;;;;;;22.83;82.28;101121.41;5030209;28;20026;-74
2022/06/25 07:19:55;;;;;;;3.80;2.72;;;;;;;22.95;82.72;101116.94;5032950;28;20119;-74
2022/06/25 07:22:21;;;;;;;5.93;2.53;;;;;;;22.85;81.28;101095.09;5030191;28;20425;-74
2022/06/25 07:24:46;;;;;;;3.58;2.42;;;;;;;22.79;81.80;101120.22;5030172;28;20394;-74
2022/06/25 07:27:11;;;;;;;4.10;2.38;;;;;;;23.41;81.77;101118.22;5030746;28;20032;-74
2022/06/25 07:29:37;;;;;;;3.17;2.42;;;;;;;23.52;79.65;101121.19;5030673;28;20029;-74
2022/06/25 07:32:02;;;;;;;6.75;2.15;;;;;;;23.57;79.16;101122.13;5031529;28;20564;-75
2022/06/25 07:34:28;;;;;;;4.75;2.67;;;;;;;23.34;78.64;101109.41;5031718;28;20467;-74
2022/06/25 07:36:53;;;;;;;3.00;2.00;;;;;;;23.14;81.38;101123.13;5026441;28;20057;-74
2022/06/25 07:39:19;;;;;;;4.50;1.95;;;;;;;23.26;79.46;101125.88;5030738;28;20452;-74
2022/06/25 07:41:44;;;;;;;1.92;1.60;;;;;;;23.33;81.23;101121.22;5029760;28;20104;-74
2022/06/25 07:44:09;;;;;;;3.17;1.90;;;;;;;23.81;79.55;101111.44;5029217;28;20139;-74
2022/06/25 07:46:35;;;;;;;6.13;2.88;;;;;;;24.32;76.88;101104.53;4994354;28;20040;-74
2022/06/25 07:49:00;;;;;;;3.97;2.35;;;;;;;24.63;76.86;101122.28;5034422;28;20492;-74
2022/06/25 07:54:09;;;;;;;2.38;1.83;;;;;;;24.49;74.07;101120.88;5036604;28;20049;-74
2022/06/25 07:56:35;;;;;;;1.75;1.40;;;;;;;;;;5032566;28;20473;-74
2022/06/25 07:59:00;;;;;;;2.43;1.40;;;;;;;25.15;72.99;101123.31;5032775;28;20041;-74
2022/06/25 08:01:26;;;;;;;1.83;1.15;;;;;;;25.13;71.54;101098.44;5034835;28;20294;-74
2022/06/25 08:03:51;;;;;;;3.17;2.40;;;;;;;25.08;70.47;101128.84;5032121;28;20582;-74
2022/06/25 08:06:16;;;;;;;3.88;1.95;;;;;;;25.47;73.74;101120.97;5035718;28;20033;-74
2022/06/25 08:08:42;;;;;;;1.80;1.48;;;;;;;26.12;70.12;101121.56;5033731;28;20033;-74
2022/06/25 08:11:07;;;;;;;4.07;2.30;;;;;;;25.72;68.96;101126.03;5017843;28;20099;-74
2022/06/25 08:13:33;;;;;;;4.47;1.60;;;;;;;26.06;74.26;101129.56;5035499;28;20478;-74
2022/06/25 08:15:59;;;;;;;3.67;1.98;;;;;;;26.36;67.94;101130.31;5029403;28;20064;-74
2022/06/25 08:18:25;;;;;;;3.35;1.55;;;;;;;26.42;69.78;101116.59;5031676;28;20396;-74
2022/06/25 08:20:50;;;;;;;2.58;1.95;;;;;;;26.51;66.41;101116.16;5013949;28;20038;-74
2022/06/25 08:23:16;;;;;;;2.30;1.50;;;;;;;26.81;65.71;101119.31;5028364;28;20393;-74
2022/06/25 08:25:41;;;;;;;2.38;1.45;;;;;;;27.61;64.05;101121.53;5024321;28;20115;-74
2022/06/25 08:28:07;;;;;;;2.75;1.88;;;;;;;27.41;64.52;101127.56;5036539;28;20040;-74
2022/06/25 08:30:33;;;;;;;2.42;1.45;;;;;;;26.79;63.52;101132.28;5036210;28;20021;-74
2022/06/25 08:32:58;;;;;;;2.00;1.10;;;;;;;26.01;65.44;101139.50;5036281;28;20040;-73
2022/06/25 08:35:24;;;;;;;3.97;1.85;;;;;;;25.75;66.83;101133.63;5033943;28;20053;-73
2022/06/25 08:37:50;;;;;;;3.15;1.73;;;;;;;25.67;68.31;101142.13;5037601;28;20021;-73
2022/06/25 08:40:18;;;;;;;3.25;1.05;;;;;;;26.32;66.03;101146.19;5037723;28;20091;-73
2022/06/25 08:42:44;;;;;;;1.85;1.50;;;;;;;25.49;67.44;101134.25;5039634;28;20471;-74
2022/06/25 08:45:09;;;;;;;3.22;1.55;;;;;;;26.26;67.05;101144.47;5038515;28;20046;-73
2022/06/25 08:47:42;;;;;;;3.55;1.45;;;;;;;26.27;64.75;101122.59;5036366;28;20041;-73
2022/06/25 08:50:08;;;;;;;3.42;1.30;;;;;;;26.72;64.29;101137.06;5036158;28;20034;-73
2022/06/25 08:52:34;;;;;;;2.28;1.27;;;;;;;25.96;65.19;101150.25;5032877;28;20084;-73
2022/06/25 08:55:00;;;;;;;2.40;1.33;;;;;;;25.48;67.31;101121.78;5036714;28;20048;-73
2022/06/25 08:57:26;;;;;;;1.17;0.80;;;;;;;26.12;66.08;101149.41;5035676;28;20450;-73
2022/06/25 08:59:51;;;;;;;1.88;0.95;;;;;;;26.60;61.09;101139.88;5035679;28;20030;-73
2022/06/25 09:02:17;;;;;;;2.03;1.15;;;;;;;26.10;62.85;101135.31;5018942;28;20111;-73
2022/06/25 09:04:42;;;;;;;1.02;0.70;;;;;;;26.31;64.75;101124.81;5033980;28;20037;-73
2022/06/25 09:07:12;;;;;;;1.30;0.82;;;;;;;25.92;63.29;101154.50;5034916;28;20297;-74
2022/06/25 09:09:38;;;;;;;1.50;1.00;;;;;;;24.97;66.25;101145.91;5034560;28;20040;-73
2022/06/25 09:12:08;;;;;;;1.38;0.80;;;;;;;24.82;68.26;101146.41;5038359;28;20025;-73
2022/06/25 09:14:35;;;;;;;1.38;0.75;;;;;;;25.23;67.92;101150.78;5036480;28;20465;-73
2022/06/25 09:17:08;;;;;;;1.23;0.60;;;;;;;23.90;66.75;101147.78;5037325;28;21267;-73
2022/06/25 09:19:43;;;;;;;1.08;0.80;;;;;;;24.36;66.98;101148.06;5035830;28;20131;-73
2022/06/25 09:22:14;;;;;;;3.80;0.90;;;;;;;24.39;65.81;101151.13;5036381;28;20469;-73
2022/06/25 09:24:39;;;;;;;2.15;0.80;;;;;;;24.50;67.62;101140.56;5033077;28;20076;-73
2022/06/25 09:27:05;;;;;;;3.83;1.00;;;;;;;24.26;68.49;101139.72;5035749;28;20032;-74
2022/06/25 09:29:44;;;;;;;2.45;0.77;;;;;;;24.69;68.16;101141.28;5033697;28;20280;-73
2022/06/25 09:32:11;;;;;;;1.73;0.80;;;;;;;24.61;69.91;101148.69;5035538;28;20029;-73
2022/06/25 09:34:38;;;;;;;1.67;0.90;;;;;;;25.47;66.72;101144.50;5038084;28;20074;-73
2022/06/25 09:37:23;;;;;;;1.73;0.98;;;;;;;25.28;65.35;101147.38;5032096;28;20370;-73
2022/06/25 09:39:50;;;;;;;1.95;0.90;;;;;;;25.27;65.62;101143.03;5033973;28;20053;-73
2022/06/25 09:42:24;;;;;;;2.33;1.08;;;;;;;26.19;65.25;101151.94;5033192;28;20024;-74
2022/06/25 09:45:09;;;;;;;1.02;0.73;;;;;;;26.10;63.26;101148.84;5041779;28;20040;-73
2022/06/25 09:47:43;;;;;;;1.90;0.80;;;;;;;25.02;64.46;101144.16;5043148;28;20037;-73
2022/06/25 09:50:11;;;;;;;2.30;0.90;;;;;;;25.37;64.54;101153.22;5037443;28;20287;-73
2022/06/25 09:52:38;;;;;;;2.20;1.10;;;;;;;25.55;64.03;101154.91;5037246;28;20119;-73
2022/06/25 09:55:05;;;;;;;1.23;0.70;;;;;;;25.62;64.86;101150.16;5017734;28;20398;-73
2022/06/25 09:57:34;;;;;;;1.65;1.13;;;;;;;25.88;65.44;101137.09;5035920;28;20116;-73
2022/06/25 10:00:01;;;;;;;1.13;0.55;;;;;;;26.59;63.18;101157.19;5033741;28;20044;-73
2022/06/25 10:02:29;;;;;;;2.08;0.95;;;;;;;26.34;62.91;101151.38;5036389;28;20041;-75
2022/06/25 10:04:59;;;;;;;6.30;1.20;;;;;;;25.89;62.74;101150.38;5033677;28;20080;-73
2022/06/25 10:07:59;;;;;;;3.03;1.00;;;;;;;25.88;63.38;101153.31;5030848;28;20075;-73
2022/06/25 10:10:17;;;;;;;1.33;0.98;;;;;;;26.86;62.61;101146.44;5034221;28;20045;-73
2022/06/25 10:12:45;;;;;;;3.58;0.85;;;;;;;27.36;59.52;101144.59;5036802;28;20035;-73
2022/06/25 10:15:11;;;;;;;1.70;1.10;;;;;;;26.42;61.53;101137.44;5036610;28;20474;-73
2022/06/25 10:17:37;;;;;;;0.95;0.70;;;;;;;26.64;64.63;101154.53;5036506;28;20052;-73
2022/06/25 10:20:03;;;;;;;1.10;0.80;;;;;;;27.25;62.40;101132.84;5033635;28;20089;-73
2022/06/25 10:22:30;;;;;;;1.92;1.10;;;;;;;27.13;60.09;101142.97;5032817;28;20565;-73
2022/06/25 10:24:58;;;;;;;2.53;0.77;;;;;;;26.72;61.67;101152.47;5032333;28;20041;-73
2022/06/25 10:27:24;;;;;;;1.95;0.93;;;;;;;26.08;62.76;101161.78;5033721;28;20052;-73
2022/06/25 10:29:56;;;;;;;2.05;0.90;;;;;;;25.84;62.39;101148.38;5035175;28;20051;-74
2022/06/25 10:32:24;;;;;;;1.88;0.75;;;;;;;26.12;64.30;101144.00;5034697;28;20033;-74
2022/06/25 10:34:58;;;;;;;1.02;0.82;;;;;;;26.17;63.27;101144.06;5035035;28;20373;-73
2022/06/25 10:37:24;;;;;;;1.98;0.70;;;;;;;26.24;62.86;101147.44;5033645;28;20052;-73
2022/06/25 10:39:54;;;;;;;1.48;0.80;;;;;;;25.68;64.28;101151.91;5031863;28;20064;-73
2022/06/25 10:45:30;;;;;;;1.00;0.60;;;;;;;26.37;62.17;101156.28;5029727;28;20064;-74
2022/06/25 10:47:59;;;;;;;0.73;0.52;;;;;;;27.54;59.74;101143.44;5027037;28;20120;-74
2022/06/25 10:50:27;;;;;;;2.65;0.90;;;;;;;28.63;58.89;101149.44;5025625;28;20063;-74
2022/06/25 10:53:10;;;;;;;2.63;0.57;;;;;;;28.97;56.12;101159.94;5028430;28;20109;-74
2022/06/25 10:55:46;;;;;;;0.80;0.47;;;;;;;27.34;57.78;101157.59;5027462;28;20532;-74
2022/06/25 10:58:23;;;;;;;1.75;0.77;;;;;;;26.80;59.35;101152.03;5022925;28;20021;-73
2022/06/25 11:00:48;;;;;;;1.42;0.68;;;;;;;27.35;58.68;101145.69;5025653;28;20043;-73
2022/06/25 11:03:15;;;;;;;1.65;1.08;;;;;;;27.85;57.09;101141.84;5026225;28;20032;-73
2022/06/25 11:05:42;;;;;;;0.73;0.47;;;;;;;28.15;57.51;101159.44;5024918;28;20026;-73
2022/06/25 11:08:08;;;;;;;0.80;0.60;;;;;;;28.08;55.97;101148.81;5027845;28;20024;-73
2022/06/25 11:10:38;;;;;;;2.03;0.60;;;;;;;28.14;58.73;101151.56;5023876;28;20116;-73
2022/06/25 11:13:04;;;;;;;1.88;0.55;;;;;;;29.40;57.19;101157.94;5027145;28;20038;-73
2022/06/25 11:15:44;;;;;;;0.70;0.40;;;;;;;28.71;54.86;101140.00;5026113;28;20053;-73
2022/06/25 11:18:12;;;;;;;0.75;0.55;;;;;;;28.28;56.03;101153.56;5026287;28;20021;-73
2022/06/25 11:20:38;;;;;;;0.90;0.60;;;;;;;27.21;58.20;101156.09;5037771;28;20041;-73
2022/06/25 11:23:03;;;;;;;0.95;0.63;;;;;;;27.11;59.51;101152.41;5031634;28;20049;-72
2022/06/25 11:28:53;;;;;;;0.63;0.38;;;;;;;29.42;54.42;101157.66;5030775;28;20393;-73
2022/06/25 11:31:20;;;;;;;0.80;0.50;;;;;;;29.51;53.08;101165.03;5034454;28;20029;-72
2022/06/25 11:33:47;;;;;;;0.60;0.40;;;;;;;27.92;55.82;101162.50;5027837;28;20033;-73